EET,Max TemperatureF,Mean TemperatureF,Min TemperatureF,Max Dew PointF,MeanDew PointF,Min DewpointF,Max Humidity, Mean Humidity, Min Humidity, Max Sea Level PressureIn, Mean Sea Level PressureIn, Min Sea Level PressureIn, Max VisibilityMiles, Mean VisibilityMiles, Min VisibilityMiles, Max Wind SpeedMPH, Mean Wind SpeedMPH, Max Gust SpeedMPH,PrecipitationIn, CloudCover, Events, WindDirDegrees
2011-10-1,80,73,66,63,57,52,78,57,42,30.12,30.10,30.06,6,6,6,18,12,,0.00,1,,42
2011-10-2,80,70,59,64,59,54,94,68,45,30.09,30.02,29.98,6,6,6,8,2,,0.00,2,,12
2011-10-3,82,70,59,61,56,52,88,60,35,30.09,30.06,30.04,6,6,6,16,5,,0.00,1,,31
2011-10-4,80,71,62,61,56,50,83,60,34,30.12,30.08,30.04,6,6,6,12,4,,0.00,1,,31
2011-10-5,80,70,59,66,60,54,94,72,57,30.09,30.07,30.04,6,6,6,9,2,,0.00,1,,294
2011-10-6,78,68,57,66,61,55,94,76,57,30.12,30.07,30.04,6,6,5,7,1,,0.00,1,,276
2011-10-7,78,69,60,68,63,55,100,79,57,30.06,29.95,29.89,6,6,5,10,3,,0.00,2,Rain-Thunderstorm,216
2011-10-8,77,70,64,68,65,63,100,85,65,29.89,29.75,29.65,6,6,2,17,9,31,0.00,5,Rain-Thunderstorm,184
2011-10-9,71,63,55,64,59,54,100,88,68,29.65,29.61,29.56,6,5,1,15,7,23,0.00,6,Rain-Thunderstorm,183
2011-10-10,66,60,55,55,51,46,100,73,52,29.71,29.60,29.50,6,6,5,23,9,28,0.00,5,Thunderstorm,31
2011-10-11,68,62,55,55,51,46,82,64,52,29.89,29.82,29.71,6,6,6,17,9,,0.00,3,,34
2011-10-12,73,62,51,63,55,50,94,73,50,30.04,29.96,29.89,6,6,6,7,1,,0.00,1,,269
2011-10-13,77,65,53,68,61,54,100,84,69,30.01,29.99,29.98,6,6,6,7,1,,0.00,1,,267
2011-10-14,77,67,57,66,61,57,100,81,57,30.01,29.97,29.95,6,6,4,23,2,40,0.00,3,Rain-Thunderstorm,39
2011-10-15,64,60,57,59,57,55,100,93,83,30.04,29.97,29.89,6,3,1,36,14,36,0.00,8,Rain-Thunderstorm,61
2011-10-16,60,58,55,59,53,46,94,83,67,29.98,29.92,29.86,6,6,2,22,16,37,0.00,7,Rain-Thunderstorm,51
2011-10-17,59,54,50,46,43,39,77,62,51,30.06,30.01,29.95,6,6,6,23,11,25,0.00,1,,55
2011-10-18,64,52,41,59,46,37,93,73,52,30.24,30.16,30.06,6,6,6,9,4,,0.00,1,,34
2011-10-19,66,54,42,59,51,41,100,84,68,30.30,30.26,30.21,6,6,6,6,1,,0.00,1,,268
2011-10-20,69,58,48,61,56,46,100,86,73,30.21,30.15,30.12,6,6,6,6,1,,0.00,1,,266
2011-10-21,71,60,50,57,54,50,100,79,56,30.15,30.12,30.09,6,6,6,6,0,,0.00,2,,270
2011-10-22,71,63,55,64,61,52,100,84,68,30.12,30.10,30.09,6,6,6,8,2,,0.00,4,,23
2011-10-23,69,63,57,61,58,52,100,79,60,30.09,30.05,30.01,6,6,4,14,8,,0.00,7,Rain,52
2011-10-24,71,65,59,59,53,50,94,66,49,30.04,30.00,29.98,6,6,5,15,7,,0.00,5,Rain,56
2011-10-25,73,66,59,61,55,48,88,68,59,30.04,30.00,29.95,6,6,6,14,8,,0.00,2,,61
2011-10-26,71,64,57,61,53,48,94,65,53,30.06,30.05,30.04,6,6,6,17,10,,0.00,1,,73
2011-10-27,69,63,57,61,50,46,94,63,46,30.15,30.09,30.04,6,6,6,16,11,,0.00,2,,79
2011-10-28,69,62,55,55,48,41,77,61,40,30.21,30.18,30.15,,,,16,11,,0.00,,,49
2011-10-29,68,60,53,55,50,48,88,66,52,30.18,30.17,30.15,,,,21,9,,0.00,,,50
2011-10-30,66,58,51,52,47,45,88,62,46,30.18,30.14,30.12,,,,18,10,,0.00,,,51
2011-10-31,66,58,51,61,55,43,94,84,59,30.18,30.11,30.09,6,6,6,16,6,,0.00,3,,63